Airfield :
LOGIN :

Register | Disclaimer

   EN    FR    IT 

 










Legend :    VFR   Marginal VFR   IFR   Intensive IFR   Very Intensive IFR
Visi :
Ceiling :
>= 8 km
>= 3000ft
5 to 8 km
1000 to 3000 ft
1500m to 5 km
500 to 1000 ft
800 to 1500m
200 to 500 ft
< 800m
< 200 ft
Symbols :   Thunderstorms  Fog  Heavy snow  Heavy precipitations  Wind > 20 kt
SIGMETs :     Misc.  Thunderstorms  Icing  Turbulence  Mountain Waves  Volcanic Ashes






- Airport Elevation : 1548 ft


LKNA - Náměšť Air Base

CURRENT METAR :
  • 150430Z 31011KT CAVOK M00/M03 Q1021 NOSIG RMK BLU BLU

EXPIRED METARs :
  • 150400Z 32011KT CAVOK M01/M03 Q1021 NOSIG RMK BLU BLU
  • 150330Z 33005KT CAVOK M01/M03 Q1021 RMK BLU
  • 150300Z 33006KT CAVOK M01/M03 Q1021 RMK BLU
  • 150230Z 34006KT 310V010 CAVOK M00/M03 Q1021 RMK BLU
  • 150200Z 32006KT CAVOK M01/M03 Q1021 RMK BLU

TAF TAF LKNA
Valid from the 15 at 00:00 until the 16 at 00:00 UTC


142300Z 1500/1600 33012KT CAVOK
BECMG 1503/1505 BKN030
TEMPO 1506/1518 34016G26KT 5000 SNRA BKN012



MET'MAP, your aeronautical weather chart ! - Copyright ORBIFLY December 2007 - Disclaimer

ORBIFLY MET'MAP TEAM :

Programming & Development : Alexandra Zaïnal
Concept & original design : Baudouin d'Aumeries
Assistance for programming : Marc-Olivier Méhu
Technical & hardware support : Manuel Goepfert

Contact : metmap@orbifly.com




SOURCES & CREDITS :

   NOAA